createdAt,value
2018-04-24T00:00:37.017Z,52.37
2018-04-24T00:01:47.055Z,52.27
2018-04-24T00:02:56.290Z,52.08
2018-04-24T00:04:06.065Z,52.3
2018-04-24T00:05:15.294Z,52.37
2018-04-24T00:06:24.523Z,52.08
2018-04-24T00:07:34.020Z,52.01
2018-04-24T00:08:43.514Z,51.98
2018-04-24T00:09:53.389Z,51.98
2018-04-24T00:11:02.914Z,52.01
2018-04-24T00:12:12.411Z,52.08
2018-04-24T00:13:21.373Z,51.98
2018-04-24T00:14:31.406Z,52.08
2018-04-24T00:15:40.361Z,52.27
2018-04-24T00:16:49.322Z,52.18
2018-04-24T00:17:58.282Z,52.01
2018-04-24T00:19:07.240Z,52.27
2018-04-24T00:20:16.472Z,52.01
2018-04-24T00:21:25.699Z,52.18
2018-04-24T00:22:35.199Z,52.11
2018-04-24T00:23:44.434Z,52.18
2018-04-24T00:24:53.666Z,51.98
2018-04-24T00:26:03.496Z,51.98
2018-04-24T00:27:13.016Z,52.18
2018-04-24T00:28:22.789Z,52.18
2018-04-24T00:29:32.286Z,52.08
2018-04-24T00:30:41.513Z,52.27
2018-04-24T00:31:51.280Z,52.49
2018-04-24T00:33:01.122Z,52.18
2018-04-24T00:34:10.881Z,52.3
2018-04-24T00:35:20.125Z,52.3
2018-04-24T00:36:30.222Z,52.27
2018-04-24T00:37:39.458Z,52.27
2018-04-24T00:38:48.417Z,52.27
2018-04-24T00:39:57.648Z,52.27
2018-04-24T00:41:06.882Z,52.27
2018-04-24T00:42:16.123Z,52.27
2018-04-24T00:43:25.616Z,52.08
2018-04-24T00:44:35.383Z,52.18
2018-04-24T00:45:45.230Z,51.98
2018-04-24T00:46:55.425Z,52.08
2018-04-24T00:48:04.385Z,51.98
2018-04-24T00:49:13.884Z,52.08
2018-04-24T00:50:23.389Z,52.37
2018-04-24T00:51:32.880Z,52.18
2018-04-24T00:52:42.111Z,51.98
2018-04-24T00:53:51.607Z,51.89
2018-04-24T00:55:00.571Z,51.89
2018-04-24T00:56:09.804Z,51.98
2018-04-24T00:57:19.031Z,51.89
2018-04-24T00:58:28.255Z,52.27
2018-04-24T00:59:37.486Z,51.7
2018-04-24T01:00:47.252Z,51.79
2018-04-24T01:01:57.017Z,52.27
2018-04-24T01:03:06.514Z,52.08
2018-04-24T01:04:15.742Z,52.27
2018-04-24T01:05:25.239Z,51.7
2018-04-24T01:06:34.735Z,51.5
2018-04-24T01:07:44.631Z,52.08
2018-04-24T01:08:54.143Z,52.18
2018-04-24T01:10:03.913Z,51.89
2018-04-24T01:11:13.408Z,51.79
2018-04-24T01:12:22.641Z,52.18
2018-04-24T01:13:31.881Z,51.79
2018-04-24T01:14:40.573Z,51.89
2018-04-24T01:15:49.803Z,51.89
2018-04-24T01:16:58.761Z,51.89
2018-04-24T01:18:08.529Z,51.7
2018-04-24T01:19:18.563Z,51.7
2018-04-24T01:20:28.604Z,51.6
2018-04-24T01:21:37.837Z,51.7
2018-04-24T01:22:47.069Z,51.89
2018-04-24T01:23:56.849Z,51.89
2018-04-24T01:25:06.352Z,51.7
2018-04-24T01:26:15.852Z,51.79
2018-04-24T01:27:25.083Z,51.7
2018-04-24T01:28:34.044Z,51.7
2018-04-24T01:29:43.543Z,51.89
2018-04-24T01:30:53.305Z,51.7
2018-04-24T01:32:03.079Z,51.7
2018-04-24T01:33:12.592Z,51.7
2018-04-24T01:34:22.092Z,51.7
2018-04-24T01:35:31.590Z,51.6
2018-04-24T01:36:40.822Z,51.7
2018-04-24T01:37:50.856Z,51.6
2018-04-24T01:39:00.358Z,51.6
2018-04-24T01:40:09.859Z,51.98
2018-04-24T01:41:18.820Z,51.6
2018-04-24T01:42:28.045Z,51.7
2018-04-24T01:43:38.072Z,51.7
2018-04-24T01:46:26.309Z,51.7
2018-04-24T01:47:35.804Z,51.6
2018-04-24T01:48:45.568Z,51.7
2018-04-24T01:49:55.064Z,51.89
2018-04-24T01:51:04.828Z,51.7
2018-04-24T01:52:13.791Z,51.89
2018-04-24T01:53:23.284Z,51.7
2018-04-24T01:54:32.787Z,51.7
2018-04-24T01:55:42.551Z,51.7
2018-04-24T01:56:51.518Z,51.7
2018-04-24T01:58:01.286Z,51.89
2018-04-24T01:59:10.517Z,51.6
2018-04-24T02:00:20.281Z,51.7
2018-04-24T02:01:29.241Z,51.6
2018-04-24T02:02:39.013Z,51.7
2018-04-24T02:03:48.512Z,51.6
2018-04-24T02:04:57.746Z,51.89
2018-04-24T02:06:06.978Z,51.6
2018-04-24T02:07:16.486Z,51.7
2018-04-24T02:08:25.715Z,51.6
2018-04-24T02:09:35.487Z,51.89
2018-04-24T02:10:44.981Z,51.7
2018-04-24T02:11:54.221Z,51.7
2018-04-24T02:13:03.718Z,51.7
2018-04-24T02:14:13.500Z,51.89
2018-04-24T02:15:22.729Z,51.89
2018-04-24T02:16:32.496Z,51.79
2018-04-24T02:17:41.994Z,51.98
2018-04-24T02:18:51.489Z,51.79
2018-04-24T02:20:00.725Z,51.98
2018-04-24T02:21:09.959Z,51.89
2018-04-24T02:22:19.720Z,51.89
2018-04-24T02:23:28.953Z,51.89
2018-04-24T02:24:41.726Z,51.89
2018-04-24T02:25:50.957Z,51.89
2018-04-24T02:27:00.195Z,51.89
2018-04-24T02:28:09.702Z,51.86
2018-04-24T02:29:19.212Z,51.76
2018-04-24T02:30:28.448Z,51.79
2018-04-24T02:31:38.214Z,51.79
2018-04-24T02:32:47.173Z,51.89
2018-04-24T02:33:56.938Z,51.86
2018-04-24T02:35:06.166Z,51.89
2018-04-24T02:36:15.394Z,51.76
2018-04-24T02:37:24.360Z,51.89
2018-04-24T02:38:34.137Z,51.79
2018-04-24T02:39:43.908Z,51.86
2018-04-24T02:40:53.683Z,51.98
2018-04-24T02:42:03.184Z,51.89
2018-04-24T02:43:12.970Z,51.89
2018-04-24T02:44:22.203Z,51.89
2018-04-24T02:45:31.989Z,51.86
2018-04-24T02:46:41.500Z,51.86
2018-04-24T02:47:50.993Z,51.86
2018-04-24T02:49:00.230Z,51.86
2018-04-24T02:50:10.016Z,51.57
2018-04-24T02:51:19.523Z,51.96
2018-04-24T02:52:29.296Z,51.86
2018-04-24T02:53:38.794Z,51.57
2018-04-24T02:54:48.575Z,51.57
2018-04-24T02:55:58.619Z,51.86
2018-04-24T02:57:08.128Z,51.57
2018-04-24T02:58:17.631Z,51.96
2018-04-24T02:59:27.477Z,51.96
2018-04-24T03:00:37.225Z,51.67
2018-04-24T03:01:46.983Z,51.86
2018-04-24T03:02:56.743Z,51.86
2018-04-24T03:04:06.789Z,51.57
2018-04-24T03:05:16.819Z,51.57
2018-04-24T03:06:26.581Z,51.57
2018-04-24T03:07:36.335Z,51.67
2018-04-24T03:08:45.841Z,51.67
2018-04-24T03:09:55.049Z,51.57
2018-04-24T03:11:04.816Z,51.67
2018-04-24T03:12:14.584Z,51.67
2018-04-24T03:13:24.373Z,51.57
2018-04-24T03:14:34.131Z,51.57
2018-04-24T03:15:43.615Z,51.67
2018-04-24T03:16:53.366Z,51.67
2018-04-24T03:18:02.588Z,51.67
2018-04-24T03:19:11.801Z,51.57
2018-04-24T03:20:21.547Z,51.86
2018-04-24T03:21:31.037Z,51.76
2018-04-24T03:22:40.794Z,51.76
2018-04-24T03:23:49.754Z,51.86
2018-04-24T03:24:59.779Z,51.67
2018-04-24T03:26:09.262Z,51.86
2018-04-24T03:27:19.007Z,51.67
2018-04-24T03:28:28.766Z,51.57
2018-04-24T03:29:37.719Z,51.76
2018-04-24T03:30:47.220Z,51.57
2018-04-24T03:31:56.707Z,51.86
2018-04-24T03:33:05.664Z,51.76
2018-04-24T03:34:14.942Z,51.86
2018-04-24T03:35:24.693Z,51.76
2018-04-24T03:36:34.443Z,51.76
2018-04-24T03:37:44.199Z,51.86
2018-04-24T03:38:53.682Z,51.96
2018-04-24T03:40:02.896Z,51.76
2018-04-24T03:41:12.649Z,51.48
2018-04-24T03:42:22.130Z,52.06
2018-04-24T03:43:31.900Z,52.25
2018-04-24T03:44:41.917Z,51.67
2018-04-24T03:45:51.132Z,52.06
2018-04-24T03:46:59.813Z,51.86
2018-04-24T03:48:09.567Z,51.86
2018-04-24T03:49:19.051Z,51.86
2018-04-24T03:50:28.802Z,51.96
2018-04-24T03:51:38.283Z,51.76
2018-04-24T03:52:48.029Z,51.76
2018-04-24T03:53:57.248Z,51.86
2018-04-24T03:55:06.475Z,51.86
2018-04-24T03:56:16.222Z,52.25
2018-04-24T03:57:25.709Z,52.15
2018-04-24T03:58:34.922Z,52.25
2018-04-24T03:59:44.134Z,52.34
2018-04-24T04:00:53.083Z,51.86
2018-04-24T04:02:02.302Z,52.44
2018-04-24T04:03:12.059Z,52.34
2018-04-24T04:04:21.812Z,52.15
2018-04-24T04:05:31.041Z,52.25
2018-04-24T04:06:40.523Z,51.96
2018-04-24T04:07:50.285Z,52.15
2018-04-24T04:09:00.047Z,51.96
2018-04-24T04:10:09.271Z,52.15
2018-04-24T04:11:18.221Z,52.15
2018-04-24T04:12:27.704Z,52.15
2018-04-24T04:13:36.651Z,52.25
2018-04-24T04:14:45.868Z,52.44
2018-04-24T04:15:56.011Z,52.06
2018-04-24T04:17:05.924Z,52.15
2018-04-24T04:18:14.869Z,52.25
2018-04-24T04:19:24.090Z,52.06
2018-04-24T04:20:33.573Z,51.96
2018-04-24T04:21:42.528Z,52.15
2018-04-24T04:22:52.011Z,52.06
2018-04-24T04:24:01.764Z,52.15
2018-04-24T04:25:10.984Z,52.15
2018-04-24T04:26:20.202Z,52.15
2018-04-24T04:27:29.419Z,52.34
2018-04-24T04:28:39.168Z,51.86
2018-04-24T04:29:48.381Z,52.06
2018-04-24T04:30:58.133Z,52.25
2018-04-24T04:32:07.887Z,52.25
2018-04-24T04:33:17.102Z,52.15
2018-04-24T04:34:26.585Z,51.86
2018-04-24T04:35:35.268Z,51.86
2018-04-24T04:36:44.492Z,52.06
2018-04-24T04:37:54.507Z,51.86
2018-04-24T04:39:03.994Z,52.06
2018-04-24T04:40:13.213Z,51.86
2018-04-24T04:41:23.286Z,51.96
2018-04-24T04:42:33.221Z,51.96
2018-04-24T04:43:42.445Z,52.25
2018-04-24T04:44:51.420Z,51.86
2018-04-24T04:46:00.910Z,51.67
2018-04-24T04:47:09.864Z,52.15
2018-04-24T04:48:19.355Z,52.25
2018-04-24T04:49:29.108Z,51.57
2018-04-24T04:50:38.861Z,52.06
2018-04-24T04:51:48.357Z,51.96
2018-04-24T04:52:57.835Z,52.06
2018-04-24T04:54:06.780Z,51.86
2018-04-24T04:55:16.269Z,51.48
2018-04-24T04:56:25.753Z,51.76
2018-04-24T04:57:35.240Z,52.06
2018-04-24T04:58:44.727Z,51.48
2018-04-24T04:59:54.483Z,52.15
2018-04-24T05:01:03.437Z,52.06
2018-04-24T05:02:12.924Z,52.15
2018-04-24T05:03:21.875Z,51.67
2018-04-24T05:04:31.633Z,51.67
2018-04-24T05:05:40.851Z,51.67
2018-04-24T05:06:50.335Z,52.15
2018-04-24T05:07:59.835Z,51.67
2018-04-24T05:09:09.308Z,52.06
2018-04-24T05:10:18.522Z,51.86
2018-04-24T05:11:27.470Z,51.86
2018-04-24T05:12:36.422Z,51.86
2018-04-24T05:13:46.170Z,52.06
2018-04-24T05:14:55.917Z,51.76
2018-04-24T05:16:05.142Z,51.67
2018-04-24T05:17:14.625Z,51.76
2018-04-24T05:18:24.382Z,51.86
2018-04-24T05:19:33.067Z,51.76
2018-04-24T05:20:42.284Z,51.76
2018-04-24T05:21:52.031Z,51.76
2018-04-24T05:23:01.784Z,51.86
2018-04-24T05:24:11.008Z,51.86
2018-04-24T05:25:21.025Z,51.67
2018-04-24T05:26:30.880Z,51.76
2018-04-24T05:27:40.615Z,51.86
2018-04-24T05:28:49.566Z,51.76
2018-04-24T05:29:58.782Z,51.67
2018-04-24T05:31:08.264Z,51.86
2018-04-24T05:32:18.010Z,52.25
2018-04-24T05:33:27.758Z,51.76
2018-04-24T05:34:37.248Z,51.76
2018-04-24T05:35:47.169Z,51.76
2018-04-24T05:36:56.837Z,51.67
2018-04-24T05:38:05.788Z,51.57
2018-04-24T05:39:15.535Z,51.67
2018-04-24T05:40:24.748Z,51.57
2018-04-24T05:41:34.242Z,51.57
2018-04-24T05:42:44.272Z,51.86
2018-04-24T05:43:53.749Z,51.57
2018-04-24T05:45:02.962Z,51.57
2018-04-24T05:46:12.717Z,51.67
2018-04-24T05:47:22.205Z,51.76
2018-04-24T05:48:31.422Z,51.76
2018-04-24T05:49:40.637Z,51.09
2018-04-24T05:50:50.391Z,50.99
2018-04-24T05:51:59.615Z,50.99
2018-04-24T05:53:09.538Z,51.38
2018-04-24T05:54:19.284Z,51.57
2018-04-24T05:55:29.028Z,51.29
2018-04-24T05:56:37.976Z,51.57
2018-04-24T05:57:47.775Z,51.67
2018-04-24T05:58:56.988Z,52.06
2018-04-24T06:00:06.202Z,51.86
2018-04-24T06:01:15.152Z,51.86
2018-04-24T06:02:24.635Z,51.86
2018-04-24T06:03:33.866Z,51.86
2018-04-24T06:04:43.353Z,51.57
2018-04-24T06:05:52.034Z,51.76
2018-04-24T06:07:01.526Z,51.76
2018-04-24T06:08:10.475Z,52.15
2018-04-24T06:09:20.641Z,52.25
2018-04-24T06:10:30.388Z,51.96
2018-04-24T06:11:39.683Z,51.96
2018-04-24T06:12:48.997Z,51.96
2018-04-24T06:13:58.201Z,52.34
2018-04-24T06:15:08.088Z,51.96
2018-04-24T06:16:17.938Z,52.15
2018-04-24T06:17:27.495Z,52.34
2018-04-24T06:18:37.003Z,51.96
2018-04-24T06:19:46.218Z,52.25
2018-04-24T06:20:55.435Z,52.15
2018-04-24T06:22:04.927Z,52.25
2018-04-24T06:23:14.144Z,52.15
2018-04-24T06:24:23.355Z,52.25
2018-04-24T06:25:32.837Z,52.25
2018-04-24T06:26:42.052Z,52.25
2018-04-24T06:27:51.003Z,52.06
2018-04-24T06:29:00.755Z,52.15
2018-04-24T06:30:10.507Z,52.34
2018-04-24T06:31:20.267Z,51.96
2018-04-24T06:32:29.755Z,52.15
2018-04-24T06:33:38.698Z,52.34
2018-04-24T06:34:48.726Z,51.96
2018-04-24T06:35:58.303Z,52.34
2018-04-24T06:37:07.912Z,52.25
2018-04-24T06:38:17.145Z,52.25
2018-04-24T06:39:26.630Z,52.15
2018-04-24T06:40:36.648Z,51.96
2018-04-24T06:41:45.864Z,52.25
2018-04-24T06:42:55.349Z,51.96
2018-04-24T06:44:05.108Z,52.34
2018-04-24T06:45:14.599Z,52.34
2018-04-24T06:46:23.819Z,52.25
2018-04-24T06:47:33.570Z,52.25
2018-04-24T06:48:43.065Z,52.06
2018-04-24T06:49:52.840Z,52.25
2018-04-24T06:51:02.321Z,52.34
2018-04-24T06:52:11.814Z,51.96
2018-04-24T06:53:21.298Z,52.03
2018-04-24T06:54:30.787Z,52.15
2018-04-24T06:55:40.007Z,51.86
2018-04-24T06:56:49.485Z,52.15
2018-04-24T06:57:59.248Z,51.96
2018-04-24T06:59:09.002Z,52.22
2018-04-24T07:00:18.752Z,51.84
2018-04-24T07:01:27.969Z,52.22
2018-04-24T07:02:37.997Z,52.03
2018-04-24T07:03:47.766Z,52.12
2018-04-24T07:04:57.260Z,52.12
2018-04-24T07:06:06.753Z,52.12
2018-04-24T07:07:15.971Z,52.12
2018-04-24T07:08:24.921Z,52.12
2018-04-24T07:09:34.131Z,52.12
2018-04-24T07:10:43.614Z,52.32
2018-04-24T07:11:53.163Z,52.12
2018-04-24T07:13:02.929Z,52.32
2018-04-24T07:14:12.681Z,52.22
2018-04-24T07:15:22.530Z,52.03
2018-04-24T07:16:33.006Z,52.12
2018-04-24T07:17:42.273Z,52.12
2018-04-24T07:18:52.298Z,52.12
2018-04-24T07:20:02.058Z,52.12
2018-04-24T07:21:11.546Z,52.61
2018-04-24T07:22:20.875Z,52.22
2018-04-24T07:23:30.364Z,52.7
2018-04-24T07:24:40.123Z,52.8
2018-04-24T07:25:49.893Z,52.61
2018-04-24T07:26:59.205Z,52.61
2018-04-24T07:28:09.236Z,52.7
2018-04-24T07:29:18.725Z,52.7
2018-04-24T07:30:28.206Z,52.7
2018-04-24T07:31:37.155Z,52.8
2018-04-24T07:32:46.907Z,52.7
2018-04-24T07:33:56.511Z,52.32
2018-04-24T07:35:05.734Z,52.32
2018-04-24T07:36:14.952Z,52.22
2018-04-24T07:37:24.166Z,52.32
2018-04-24T07:38:33.654Z,52.32
2018-04-24T07:39:43.140Z,52.32
2018-04-24T07:40:52.909Z,52.32
2018-04-24T07:42:02.411Z,52.42
2018-04-24T07:43:11.896Z,52.32
2018-04-24T07:44:20.846Z,52.42
2018-04-24T07:45:30.328Z,52.32
2018-04-24T07:46:39.957Z,52.32
2018-04-24T07:47:50.211Z,52.42
2018-04-24T07:48:59.956Z,52.32
2018-04-24T07:50:08.911Z,52.61
2018-04-24T07:51:18.971Z,52.7
2018-04-24T07:52:28.190Z,52.32
2018-04-24T07:53:37.681Z,52.42
2018-04-24T07:54:46.908Z,52.42
2018-04-24T07:55:56.125Z,52.32
2018-04-24T07:57:05.080Z,52.32
2018-04-24T07:58:14.563Z,52.61
2018-04-24T07:59:24.188Z,52.32
2018-04-24T08:00:33.159Z,52.32
2018-04-24T08:01:42.113Z,52.51
2018-04-24T08:02:51.326Z,52.7
2018-04-24T08:04:00.545Z,52.32
2018-04-24T08:05:10.306Z,52.34
2018-04-24T08:06:19.801Z,52.61
2018-04-24T08:07:29.566Z,52.7
2018-04-24T08:08:38.782Z,52.7
2018-04-24T08:09:47.733Z,52.8
2018-04-24T08:10:56.965Z,52.7
2018-04-24T08:12:06.984Z,52.8
2018-04-24T08:13:16.204Z,52.61
2018-04-24T08:14:25.682Z,52.61
2018-04-24T08:15:34.899Z,52.42
2018-04-24T08:16:44.648Z,52.8
2018-04-24T08:17:54.401Z,52.8
2018-04-24T08:19:03.617Z,52.51
2018-04-24T08:20:12.846Z,52.42
2018-04-24T08:21:22.070Z,52.51
2018-04-24T08:22:31.566Z,52.99
2018-04-24T08:23:41.576Z,52.89
2018-04-24T08:24:51.066Z,52.51
2018-04-24T08:26:00.564Z,52.8
2018-04-24T08:27:09.789Z,52.61
2018-04-24T08:28:19.803Z,52.99
2018-04-24T08:29:29.290Z,52.99
2018-04-24T08:30:39.313Z,53.57
2018-04-24T08:31:49.078Z,53.21
2018-04-24T08:32:59.097Z,53.38
2018-04-24T08:34:08.586Z,53.38
2018-04-24T08:35:17.805Z,53.19
2018-04-24T08:36:27.291Z,53.28
2018-04-24T08:37:36.777Z,53.19
2018-04-24T08:38:46.536Z,53.19
2018-04-24T08:39:56.610Z,53.28
2018-04-24T08:41:06.529Z,52.7
2018-04-24T08:42:15.571Z,52.51
2018-04-24T08:43:25.066Z,52.61
2018-04-24T08:44:34.815Z,52.51
2018-04-24T08:45:44.034Z,52.32
2018-04-24T08:46:53.248Z,52.7
2018-04-24T08:48:03.388Z,52.51
2018-04-24T08:49:12.609Z,52.8
2018-04-24T08:50:22.365Z,53.28
2018-04-24T08:51:31.861Z,52.99
2018-04-24T08:52:40.806Z,53.28
2018-04-24T08:53:50.022Z,53.47
2018-04-24T08:54:59.235Z,53.19
2018-04-24T08:56:09.055Z,53.57
2018-04-24T08:57:18.808Z,53.38
2018-04-24T08:58:28.024Z,53.86
2018-04-24T08:59:37.778Z,53.57
2018-04-24T09:00:47.539Z,53.66
2018-04-24T09:01:57.117Z,53.66
2018-04-24T09:03:06.744Z,53.19
2018-04-24T09:04:15.689Z,53.38
2018-04-24T09:05:24.910Z,53.19
2018-04-24T09:06:34.393Z,53.76
2018-04-24T09:07:43.607Z,53.28
2018-04-24T09:08:53.113Z,53.57
2018-04-24T09:10:02.880Z,53.47
2018-04-24T09:11:12.111Z,53.38
2018-04-24T09:12:21.331Z,53.86
2018-04-24T09:13:30.545Z,53.64
2018-04-24T09:14:40.026Z,53.64
2018-04-24T09:15:49.781Z,53.38
2018-04-24T09:16:58.735Z,53.45
2018-04-24T09:18:08.224Z,53.47
2018-04-24T09:19:17.979Z,53.45
2018-04-24T09:20:27.470Z,53.76
2018-04-24T09:21:36.681Z,53.83
2018-04-24T09:22:45.626Z,53.76
2018-04-24T09:23:55.112Z,53.74
2018-04-24T09:25:04.866Z,53.76
2018-04-24T09:26:14.094Z,53.86
2018-04-24T09:27:22.768Z,53.96
2018-04-24T09:28:31.982Z,53.86
2018-04-24T09:29:41.729Z,53.76
2018-04-24T09:30:51.538Z,53.92
2018-04-24T09:32:01.020Z,53.74
2018-04-24T09:33:10.235Z,53.83
2018-04-24T09:34:19.724Z,53.54
2018-04-24T09:35:29.208Z,53.38
2018-04-24T09:36:38.686Z,53.83
2018-04-24T09:37:48.175Z,53.92
2018-04-24T09:38:57.167Z,53.57
2018-04-24T09:40:07.494Z,53.38
2018-04-24T09:41:17.341Z,53.47
2018-04-24T09:42:27.091Z,53.54
2018-04-24T09:43:35.769Z,53.83
2018-04-24T09:44:45.522Z,53.86
2018-04-24T09:45:54.796Z,53.92
2018-04-24T09:47:04.102Z,53.86
2018-04-24T09:48:13.581Z,53.86
2018-04-24T09:49:23.685Z,53.74
2018-04-24T09:50:33.979Z,53.76
2018-04-24T09:51:43.733Z,53.96
2018-04-24T09:52:53.485Z,53.86
2018-04-24T09:54:03.241Z,53.86
2018-04-24T09:55:12.728Z,53.76
2018-04-24T09:56:21.947Z,53.66
2018-04-24T09:57:31.974Z,53.76
2018-04-24T09:58:41.721Z,53.86
2018-04-24T09:59:50.938Z,53.83
2018-04-24T10:01:00.422Z,53.76
2018-04-24T10:02:10.281Z,53.86
2018-04-24T10:03:19.924Z,53.76
2018-04-24T10:04:29.947Z,53.76
2018-04-24T10:05:39.960Z,53.76
2018-04-24T10:06:49.708Z,53.76
2018-04-24T10:07:58.928Z,53.57
2018-04-24T10:09:08.217Z,53.47
2018-04-24T10:10:17.445Z,53.47
2018-04-24T10:11:27.473Z,53.38
2018-04-24T10:12:37.222Z,53.86
2018-04-24T10:13:47.188Z,53.47
2018-04-24T10:14:57.112Z,53.28
2018-04-24T10:16:06.869Z,53.28
2018-04-24T10:17:16.351Z,53.28
2018-04-24T10:18:25.302Z,53.28
2018-04-24T10:19:34.789Z,53.38
2018-04-24T10:20:44.451Z,53.38
2018-04-24T10:21:53.943Z,53.38
2018-04-24T10:23:03.689Z,53.38
2018-04-24T10:24:12.908Z,53.47
2018-04-24T10:25:22.656Z,53.38
2018-04-24T10:26:32.134Z,53.19
2018-04-24T10:27:41.888Z,53.28
2018-04-24T10:28:51.644Z,53.38
2018-04-24T10:30:00.323Z,53.38
2018-04-24T10:31:09.813Z,53.66
2018-04-24T10:32:19.034Z,53.66
2018-04-24T10:33:29.052Z,53.38
2018-04-24T10:34:38.266Z,53.38
2018-04-24T10:35:47.484Z,53.57
2018-04-24T10:36:56.968Z,53.66
2018-04-24T10:38:06.452Z,53.57
2018-04-24T10:39:15.678Z,53.57
2018-04-24T10:40:25.160Z,53.57
2018-04-24T10:41:34.904Z,53.47
2018-04-24T10:42:44.116Z,53.47
2018-04-24T10:43:53.967Z,53.57
2018-04-24T10:45:03.608Z,53.47
2018-04-24T10:46:12.826Z,53.47
2018-04-24T10:47:22.643Z,53.47
2018-04-24T10:48:31.863Z,53.47
2018-04-24T10:49:41.886Z,53.38
2018-04-24T10:50:51.371Z,53.47
2018-04-24T10:52:00.593Z,53.86
2018-04-24T10:53:09.620Z,53.76
2018-04-24T10:54:19.674Z,53.47
2018-04-24T10:55:29.434Z,53.38
2018-04-24T10:56:39.533Z,53.28
2018-04-24T10:57:48.489Z,53.38
2018-04-24T10:58:57.993Z,53.28
2018-04-24T11:00:07.746Z,53.47
2018-04-24T11:01:17.229Z,53.38
2018-04-24T11:02:26.712Z,53.38
2018-04-24T11:03:36.199Z,53.19
2018-04-24T11:04:45.156Z,53.38
2018-04-24T11:05:54.367Z,53.19
2018-04-24T11:07:03.591Z,53.47
2018-04-24T11:08:13.349Z,53.47
2018-04-24T11:09:23.107Z,53.28
2018-04-24T11:10:32.334Z,53.28
2018-04-24T11:11:42.086Z,53.28
2018-04-24T11:12:51.935Z,53.09
2018-04-24T11:14:00.877Z,53.19
2018-04-24T11:15:10.365Z,53.28
2018-04-24T11:16:19.577Z,53.28
2018-04-24T11:17:29.066Z,53.19
2018-04-24T11:18:38.016Z,52.99
2018-04-24T11:19:47.509Z,53.38
2018-04-24T11:20:57.265Z,53.38
2018-04-24T11:22:06.477Z,53.28
2018-04-24T11:23:16.227Z,53.38
2018-04-24T11:24:25.440Z,53.47
2018-04-24T11:25:34.665Z,53.47
2018-04-24T11:26:43.622Z,53.28
2018-04-24T11:27:53.638Z,53.28
2018-04-24T11:29:03.391Z,53.38
2018-04-24T11:30:12.928Z,53.57
2018-04-24T11:31:22.842Z,53.57
2018-04-24T11:32:32.848Z,53.47
2018-04-24T11:33:42.599Z,52.8
2018-04-24T11:34:52.358Z,52.99
2018-04-24T11:36:01.688Z,52.8
2018-04-24T11:37:10.943Z,52.61
2018-04-24T11:38:20.157Z,52.61
2018-04-24T11:39:29.106Z,52.99
2018-04-24T11:40:38.858Z,52.8
2018-04-24T11:41:48.347Z,52.61
2018-04-24T11:42:58.101Z,52.89
2018-04-24T11:44:07.931Z,52.51
2018-04-24T11:45:17.509Z,52.7
2018-04-24T11:46:26.997Z,52.7
2018-04-24T11:47:36.758Z,52.51
2018-04-24T11:48:46.858Z,52.7
2018-04-24T11:49:55.803Z,52.42
2018-04-24T11:51:04.759Z,52.51
2018-04-24T11:52:14.247Z,52.51
2018-04-24T11:53:23.461Z,52.42
2018-04-24T11:54:32.678Z,52.61
2018-04-24T11:55:41.890Z,52.63
2018-04-24T11:56:51.639Z,52.73
2018-04-24T11:58:01.490Z,52.42
2018-04-24T11:59:10.440Z,52.44
2018-04-24T12:00:20.192Z,52.34
2018-04-24T12:01:29.944Z,52.22
2018-04-24T12:02:39.274Z,52.34
2018-04-24T12:03:49.335Z,52.83
2018-04-24T12:04:58.288Z,52.73
2018-04-24T12:06:07.787Z,52.73
2018-04-24T12:07:17.539Z,52.73
2018-04-24T12:08:27.296Z,52.63
2018-04-24T12:09:37.073Z,52.06
2018-04-24T12:10:46.558Z,52.15
2018-04-24T12:11:56.049Z,52.06
2018-04-24T12:13:05.264Z,52.15
2018-04-24T12:14:15.028Z,52.34
2018-04-24T12:15:24.786Z,52.25
2018-04-24T12:16:34.001Z,51.76
2018-04-24T12:17:43.491Z,51.96
2018-04-24T12:18:53.503Z,51.96
2018-04-24T12:20:02.716Z,52.34
2018-04-24T12:21:12.297Z,52.15
2018-04-24T12:22:22.046Z,52.15
2018-04-24T12:23:31.540Z,52.15
2018-04-24T12:24:41.022Z,52.15
2018-04-24T12:25:50.252Z,51.76
2018-04-24T12:26:59.770Z,52.06
2018-04-24T12:28:09.001Z,52.06
2018-04-24T12:29:19.017Z,51.76
2018-04-24T12:30:28.014Z,51.86
2018-04-24T12:31:38.252Z,51.86
2018-04-24T12:32:47.465Z,51.96
2018-04-24T12:33:56.954Z,51.76
2018-04-24T12:35:06.439Z,51.67
2018-04-24T12:36:15.928Z,51.48
2018-04-24T12:37:25.697Z,51.86
2018-04-24T12:38:35.190Z,52.15
2018-04-24T12:39:45.271Z,52.15
2018-04-24T12:40:55.044Z,52.06
2018-04-24T12:42:04.793Z,51.86
2018-04-24T12:43:14.003Z,51.86
2018-04-24T12:44:24.022Z,52.25
2018-04-24T12:45:33.519Z,52.06
2018-04-24T12:46:43.006Z,52.15
2018-04-24T12:47:52.488Z,52.15
2018-04-24T12:49:01.438Z,52.25
2018-04-24T12:50:11.189Z,52.06
2018-04-24T12:51:20.411Z,52.06
2018-04-24T12:52:29.361Z,51.96
2018-04-24T12:53:39.125Z,51.86
2018-04-24T12:54:48.880Z,52.25
2018-04-24T12:55:58.625Z,51.86
2018-04-24T12:57:08.380Z,52.15
2018-04-24T12:58:17.598Z,51.86
2018-04-24T12:59:27.635Z,51.76
2018-04-24T13:00:36.852Z,52.25
2018-04-24T13:01:46.889Z,51.86
2018-04-24T13:02:56.106Z,51.96
2018-04-24T13:04:05.865Z,51.86
2018-04-24T13:05:15.879Z,52.25
2018-04-24T13:06:25.633Z,51.96
2018-04-24T13:07:35.393Z,52.15
2018-04-24T13:08:45.147Z,51.86
2018-04-24T13:09:54.738Z,51.86
2018-04-24T13:11:04.517Z,52.15
2018-04-24T13:12:13.732Z,52.25
2018-04-24T13:13:22.949Z,51.86
2018-04-24T13:14:32.700Z,52.06
2018-04-24T13:15:42.600Z,51.48
2018-04-24T13:16:51.979Z,51.48
2018-04-24T13:18:01.942Z,51.67
2018-04-24T13:19:11.776Z,52.15
2018-04-24T13:20:21.604Z,51.76
2018-04-24T13:21:31.091Z,51.76
2018-04-24T13:22:40.308Z,51.86
2018-04-24T13:23:49.607Z,51.67
2018-04-24T13:24:59.097Z,51.67
2018-04-24T13:26:08.613Z,51.57
2018-04-24T13:27:17.831Z,51.89
2018-04-24T13:28:27.048Z,51.67
2018-04-24T13:29:36.798Z,51.86
2018-04-24T13:30:46.545Z,51.86
2018-04-24T13:31:56.029Z,51.89
2018-04-24T13:33:05.510Z,51.57
2018-04-24T13:34:15.291Z,51.89
2018-04-24T13:35:24.504Z,51.89
2018-04-24T13:36:33.455Z,51.86
2018-04-24T13:37:42.671Z,51.98
2018-04-24T13:38:51.888Z,51.79
2018-04-24T13:40:01.377Z,51.7
2018-04-24T13:41:10.888Z,51.89
2018-04-24T13:42:20.225Z,51.79
2018-04-24T13:43:29.979Z,51.76
2018-04-24T13:44:39.466Z,51.7
2018-04-24T13:45:48.697Z,51.76
2018-04-24T13:46:58.444Z,51.89
2018-04-24T13:48:07.669Z,51.86
2018-04-24T13:49:17.190Z,51.89
2018-04-24T13:50:26.738Z,51.89
2018-04-24T13:51:35.984Z,51.79
2018-04-24T13:52:45.235Z,51.79
2018-04-24T13:53:55.283Z,51.89
2018-04-24T13:55:04.498Z,51.89
2018-04-24T13:56:13.980Z,51.79
2018-04-24T13:57:24.034Z,51.89
2018-04-24T13:58:33.559Z,51.89
2018-04-24T13:59:43.319Z,51.79
2018-04-24T14:00:52.033Z,51.7
2018-04-24T14:02:01.961Z,51.89
2018-04-24T14:03:11.445Z,51.41
2018-04-24T14:04:20.667Z,50.93
2018-04-24T14:05:30.683Z,51.02
2018-04-24T14:06:39.900Z,50.9
2018-04-24T14:07:49.655Z,50.9
2018-04-24T14:08:58.883Z,50.99
2018-04-24T14:10:08.365Z,50.9
2018-04-24T14:11:17.849Z,51.19
2018-04-24T14:12:27.329Z,51.09
2018-04-24T14:13:36.550Z,51.29
2018-04-24T14:14:45.765Z,50.81
2018-04-24T14:15:54.979Z,50.32
2018-04-24T14:17:04.738Z,50.61
2018-04-24T14:18:14.495Z,50.42
2018-04-24T14:19:24.255Z,50.61
2018-04-24T14:20:33.475Z,50.9
2018-04-24T14:21:42.971Z,50.81
2018-04-24T14:22:53.117Z,50.04
2018-04-24T14:24:02.871Z,50.13
2018-04-24T14:25:12.353Z,50.13
2018-04-24T14:26:22.375Z,50.04
2018-04-24T14:27:32.143Z,50.32
2018-04-24T14:28:41.638Z,50.01
2018-04-24T14:29:51.131Z,50.01
2018-04-24T14:31:00.086Z,50.32
2018-04-24T14:32:09.303Z,50.1
2018-04-24T14:33:19.056Z,50.23
2018-04-24T14:34:29.076Z,50.1
2018-04-24T14:35:38.559Z,50.2
2018-04-24T14:36:48.049Z,49.63
2018-04-24T14:37:56.997Z,49.72
2018-04-24T14:39:05.963Z,49.84
2018-04-24T14:40:14.917Z,49.82
2018-04-24T14:41:24.399Z,49.74
2018-04-24T14:42:34.184Z,49.55
2018-04-24T14:43:44.445Z,49.65
2018-04-24T14:44:54.679Z,49.27
2018-04-24T14:46:04.294Z,49.53
2018-04-24T14:47:13.850Z,49.43
2018-04-24T14:48:23.700Z,49.94
2018-04-24T14:49:33.011Z,49.82
2018-04-24T14:50:42.314Z,49.94
2018-04-24T14:51:52.355Z,49.94
2018-04-24T14:53:02.005Z,49.94
2018-04-24T14:54:11.796Z,49.84
2018-04-24T14:55:21.584Z,49.74
2018-04-24T14:56:30.925Z,49.94
2018-04-24T14:57:41.294Z,49.65
2018-04-24T14:58:50.813Z,50.04
2018-04-24T15:00:00.088Z,49.63